Terminal Aerodrome Forecast
Issued by NWS Cleveland, OH

Home | Current Version | Previous Version | Graphics & Text | Print | Product List | Glossary On
Versions: 1 2 3 4 5 6 7 8 9 10 11 12 13 14 15 16 17 18 19 20 21 22 23 24
000
FTUS41 KCLE 010524
TAFCLE
TAF
KCLE 010524Z 0106/0212 17003KT P6SM SCT040
     FM010800 18003KT 4SM BR SKC
     FM011300 24006KT P6SM SCT040
     FM011700 30008KT P6SM SCT050
     FM020000 VRB03KT P6SM BKN250
     FM020600 VRB03KT 4SM BR BKN250=

USA.gov is the U.S. government's official web portal to all federal, state and local government web resources and services.